createdAt,value
2018-06-28T00:02:18.438Z,1.60
2018-06-28T00:04:50.694Z,2.07
2018-06-28T00:07:22.185Z,1.90
2018-06-28T00:09:53.538Z,2.27
2018-06-28T00:12:24.466Z,2.10
2018-06-28T00:14:55.916Z,2.10
2018-06-28T00:17:27.997Z,2.00
2018-06-28T00:19:59.628Z,1.90
2018-06-28T00:22:31.573Z,2.10
2018-06-28T00:25:03.574Z,1.80
2018-06-28T00:27:35.166Z,2.20
2018-06-28T00:30:07.497Z,2.00
2018-06-28T00:32:38.997Z,1.80
2018-06-28T00:35:10.449Z,1.97
2018-06-28T00:37:42.386Z,1.93
2018-06-28T00:40:14.324Z,1.97
2018-06-28T00:42:45.785Z,2.10
2018-06-28T00:45:17.350Z,2.00
2018-06-28T00:47:48.875Z,2.10
2018-06-28T00:50:20.423Z,1.97
2018-06-28T00:52:52.104Z,2.20
2018-06-28T00:55:23.812Z,1.87
2018-06-28T00:57:55.826Z,2.00
2018-06-28T01:00:28.403Z,2.13
2018-06-28T01:03:00.307Z,1.97
2018-06-28T01:05:32.691Z,2.30
2018-06-28T01:08:04.449Z,2.10
2018-06-28T01:10:36.266Z,2.00
2018-06-28T01:13:08.262Z,2.10
2018-06-28T01:15:40.719Z,2.00
2018-06-28T01:18:12.301Z,2.03
2018-06-28T01:20:44.103Z,1.80
2018-06-28T01:23:16.259Z,1.70
2018-06-28T01:25:48.135Z,1.80
2018-06-28T01:28:19.691Z,1.77
2018-06-28T01:30:53.117Z,1.80
2018-06-28T01:33:24.969Z,1.97
2018-06-28T01:35:56.741Z,2.50
2018-06-28T01:38:28.603Z,2.07
2018-06-28T01:41:00.387Z,2.43
2018-06-28T01:43:48.347Z,2.17
2018-06-28T01:46:19.989Z,2.50
2018-06-28T01:48:51.490Z,2.40
2018-06-28T01:51:22.973Z,2.20
2018-06-28T01:53:54.434Z,2.70
2018-06-28T01:56:26.205Z,2.23
2018-06-28T01:58:57.824Z,2.50
2018-06-28T02:01:29.877Z,2.70
2018-06-28T02:04:02.047Z,2.67
2018-06-28T02:06:33.729Z,2.30
2018-06-28T02:09:10.180Z,2.33
2018-06-28T02:11:42.040Z,2.40
2018-06-28T02:14:13.877Z,2.20
2018-06-28T02:16:45.535Z,2.70
2018-06-28T02:19:17.733Z,2.00
2018-06-28T02:21:49.511Z,2.70
2018-06-28T02:24:21.034Z,2.17
2018-06-28T02:26:52.583Z,2.17
2018-06-28T02:29:24.057Z,2.63
2018-06-28T02:31:56.084Z,2.40
2018-06-28T02:34:27.846Z,2.30
2018-06-28T02:36:59.759Z,2.23
2018-06-28T02:39:31.138Z,2.30
2018-06-28T02:42:02.636Z,2.40
2018-06-28T02:44:34.302Z,2.40
2018-06-28T02:47:06.177Z,2.57
2018-06-28T02:49:38.165Z,2.23
2018-06-28T02:52:09.823Z,2.53
2018-06-28T02:54:41.352Z,2.40
2018-06-28T02:57:12.837Z,2.47
2018-06-28T02:59:44.521Z,2.83
2018-06-28T03:02:16.247Z,2.27
2018-06-28T03:04:48.063Z,2.30
2018-06-28T03:07:19.213Z,2.23
2018-06-28T03:09:50.505Z,2.60
2018-06-28T03:12:21.973Z,2.40
2018-06-28T03:14:53.818Z,2.57
2018-06-28T03:17:25.361Z,2.87
2018-06-28T03:19:56.891Z,2.63
2018-06-28T03:22:28.365Z,2.80
2018-06-28T03:25:00.295Z,2.60
2018-06-28T03:27:32.144Z,2.90
2018-06-28T03:30:03.781Z,2.30
2018-06-28T03:32:35.239Z,2.90
2018-06-28T03:35:07.025Z,2.13
2018-06-28T03:37:39.040Z,2.90
2018-06-28T03:40:11.196Z,2.83
2018-06-28T03:42:42.670Z,2.43
2018-06-28T03:45:14.147Z,2.57
2018-06-28T03:47:45.594Z,2.60
2018-06-28T03:50:17.127Z,2.93
2018-06-28T03:52:48.791Z,2.67
2018-06-28T03:55:20.653Z,2.50
2018-06-28T03:57:52.101Z,3.00
2018-06-28T04:00:23.701Z,2.73
2018-06-28T04:02:55.190Z,2.23
2018-06-28T04:05:26.668Z,2.60
2018-06-28T04:07:58.211Z,2.97
2018-06-28T04:10:29.729Z,2.90
2018-06-28T04:13:01.220Z,2.80
2018-06-28T04:15:32.715Z,2.73
2018-06-28T04:18:05.046Z,3.13
2018-06-28T04:20:36.463Z,3.20
2018-06-28T04:23:08.261Z,3.07
2018-06-28T04:25:40.301Z,3.10
2018-06-28T04:28:12.017Z,2.90
2018-06-28T04:30:43.613Z,2.70
2018-06-28T04:33:15.268Z,3.17
2018-06-28T04:35:47.018Z,2.63
2018-06-28T04:38:18.946Z,2.83
2018-06-28T04:40:50.170Z,3.00
2018-06-28T04:43:22.009Z,3.30
2018-06-28T04:45:53.630Z,3.27
2018-06-28T04:48:25.096Z,3.10
2018-06-28T04:50:56.682Z,3.40
2018-06-28T04:53:28.153Z,3.50
2018-06-28T04:55:59.957Z,3.70
2018-06-28T04:58:31.485Z,3.77
2018-06-28T05:01:03.095Z,3.67
2018-06-28T05:03:34.633Z,3.53
2018-06-28T05:06:06.462Z,3.73
2018-06-28T05:08:37.923Z,3.70
2018-06-28T05:11:09.867Z,3.37
2018-06-28T05:13:41.377Z,3.40
2018-06-28T05:16:12.917Z,4.20
2018-06-28T05:18:44.428Z,3.40
2018-06-28T05:21:16.240Z,3.53
2018-06-28T05:23:47.864Z,3.67
2018-06-28T05:26:19.973Z,3.93
2018-06-28T05:28:52.483Z,4.13
2018-06-28T05:31:24.938Z,4.00
2018-06-28T05:33:57.801Z,3.63
2018-06-28T05:36:29.517Z,3.40
2018-06-28T05:39:00.704Z,3.70
2018-06-28T05:41:32.017Z,4.13
2018-06-28T05:44:03.768Z,3.70
2018-06-28T05:46:35.263Z,3.50
2018-06-28T05:49:06.790Z,3.90
2018-06-28T05:51:38.077Z,4.20
2018-06-28T05:54:09.589Z,4.03
2018-06-28T05:56:41.439Z,3.40
2018-06-28T05:59:13.119Z,3.40
2018-06-28T06:01:44.770Z,3.47
2018-06-28T06:04:17.917Z,3.53
2018-06-28T06:06:49.915Z,3.57
2018-06-28T06:09:21.432Z,3.60
2018-06-28T06:11:52.912Z,3.67
2018-06-28T06:14:24.506Z,3.47
2018-06-28T06:16:55.858Z,3.33
2018-06-28T06:19:27.221Z,3.57
2018-06-28T06:21:59.276Z,3.30
2018-06-28T06:24:31.219Z,3.90
2018-06-28T06:27:02.783Z,3.20
2018-06-28T06:29:34.434Z,3.07
2018-06-28T06:32:06.027Z,3.20
2018-06-28T06:34:38.732Z,3.37
2018-06-28T06:37:10.874Z,3.80
2018-06-28T06:39:42.406Z,3.50
2018-06-28T06:42:14.346Z,3.17
2018-06-28T06:44:45.922Z,3.37
2018-06-28T06:47:17.509Z,3.47
2018-06-28T06:49:49.092Z,3.77
2018-06-28T06:52:21.242Z,3.40
2018-06-28T06:54:53.231Z,4.30
2018-06-28T06:57:24.856Z,3.70
2018-06-28T06:59:56.245Z,3.53
2018-06-28T07:02:27.642Z,3.50
2018-06-28T07:04:59.292Z,2.63
2018-06-28T07:07:30.671Z,2.73
2018-06-28T07:10:01.728Z,2.60
2018-06-28T07:12:33.410Z,2.80
2018-06-28T07:15:05.769Z,2.30
2018-06-28T07:17:37.415Z,2.93
2018-06-28T07:20:09.064Z,2.43
2018-06-28T07:22:40.720Z,2.57
2018-06-28T07:25:12.539Z,2.43
2018-06-28T07:27:44.409Z,2.73
2018-06-28T07:30:16.091Z,3.40
2018-06-28T07:32:47.312Z,2.80
2018-06-28T07:35:18.974Z,2.83
2018-06-28T07:37:50.716Z,2.23
2018-06-28T07:40:22.303Z,2.93
2018-06-28T07:42:53.893Z,3.00
2018-06-28T07:45:25.584Z,3.10
2018-06-28T07:47:57.063Z,2.87
2018-06-28T07:50:51.663Z,2.50
2018-06-28T07:53:23.746Z,2.33
2018-06-28T07:55:55.677Z,2.33
2018-06-28T07:58:27.637Z,2.93
2018-06-28T08:00:58.988Z,2.60
2018-06-28T08:03:30.400Z,2.80
2018-06-28T08:06:02.236Z,2.70
2018-06-28T08:08:33.807Z,2.70
2018-06-28T08:11:05.976Z,2.73
2018-06-28T08:13:37.431Z,2.33
2018-06-28T08:16:08.976Z,2.27
2018-06-28T08:18:40.749Z,2.27
2018-06-28T08:21:12.566Z,2.63
2018-06-28T08:23:44.128Z,2.53
2018-06-28T08:26:15.902Z,2.00
2018-06-28T08:28:47.349Z,2.07
2018-06-28T08:31:20.457Z,2.20
2018-06-28T08:33:51.939Z,2.47
2018-06-28T08:36:23.846Z,2.03
2018-06-28T08:38:55.466Z,3.23
2018-06-28T08:41:27.429Z,2.57
2018-06-28T08:43:59.273Z,2.20
2018-06-28T08:46:31.222Z,2.00
2018-06-28T08:49:03.170Z,1.90
2018-06-28T08:51:35.401Z,1.90
2018-06-28T08:54:07.182Z,2.27
2018-06-28T08:56:38.722Z,2.00
2018-06-28T08:59:10.610Z,1.93
2018-06-28T09:01:42.199Z,2.00
2018-06-28T09:04:13.831Z,2.00
2018-06-28T09:06:45.464Z,2.00
2018-06-28T09:09:17.460Z,2.20
2018-06-28T09:11:48.946Z,1.90
2018-06-28T09:14:20.528Z,2.30
2018-06-28T09:16:52.668Z,2.00
2018-06-28T09:19:24.190Z,2.20
2018-06-28T09:21:55.797Z,2.17
2018-06-28T09:24:28.331Z,1.77
2018-06-28T09:26:59.889Z,2.23
2018-06-28T09:29:31.733Z,2.00
2018-06-28T09:32:03.708Z,2.10
2018-06-28T09:34:35.308Z,2.00
2018-06-28T09:37:07.442Z,2.03
2018-06-28T09:39:39.148Z,2.13
2018-06-28T09:42:10.865Z,2.03
2018-06-28T09:44:42.203Z,2.10
2018-06-28T09:47:13.785Z,2.20
2018-06-28T09:49:44.969Z,2.53
2018-06-28T09:52:16.349Z,2.70
2018-06-28T09:54:47.977Z,2.10
2018-06-28T09:57:19.784Z,2.87
2018-06-28T09:59:52.159Z,2.60
2018-06-28T10:02:24.406Z,2.30
2018-06-28T10:04:56.512Z,2.17
2018-06-28T10:07:28.267Z,2.37
2018-06-28T10:10:00.474Z,2.20
2018-06-28T10:12:32.516Z,2.30
2018-06-28T10:15:04.293Z,2.43
2018-06-28T10:17:36.668Z,2.12
2018-06-28T10:20:08.884Z,3.75
2018-06-28T10:22:40.541Z,2.33
2018-06-28T10:25:12.722Z,2.20
2018-06-28T10:27:45.234Z,2.75
2018-06-28T10:30:17.632Z,2.77
2018-06-28T10:32:50.317Z,2.72
2018-06-28T10:35:22.637Z,2.62
2018-06-28T10:37:54.851Z,2.52
2018-06-28T10:40:27.300Z,2.30
2018-06-28T10:42:59.415Z,2.40
2018-06-28T10:45:32.379Z,2.58
2018-06-28T10:48:05.633Z,2.42
2018-06-28T10:50:38.110Z,3.20
2018-06-28T10:53:10.377Z,2.47
2018-06-28T10:55:42.827Z,2.55
2018-06-28T10:58:14.855Z,2.40
2018-06-28T11:00:47.293Z,2.22
2018-06-28T11:03:19.398Z,2.35
2018-06-28T11:05:51.525Z,2.60
2018-06-28T11:08:24.532Z,2.80
2018-06-28T11:10:56.919Z,3.08
2018-06-28T11:13:29.272Z,2.90
2018-06-28T11:16:01.364Z,2.55
2018-06-28T11:18:33.633Z,2.08
2018-06-28T11:21:06.029Z,2.10
2018-06-28T11:23:38.211Z,2.80
2018-06-28T11:26:10.217Z,2.25
2018-06-28T11:28:42.553Z,2.35
2018-06-28T11:31:14.914Z,2.20
2018-06-28T11:33:47.155Z,2.25
2018-06-28T11:36:19.701Z,2.30
2018-06-28T11:38:52.010Z,4.72
2018-06-28T11:41:24.321Z,2.37
2018-06-28T11:43:56.098Z,2.40
2018-06-28T11:46:27.996Z,2.50
2018-06-28T11:49:00.462Z,2.75
2018-06-28T11:51:33.206Z,2.10
2018-06-28T11:54:05.811Z,1.98
2018-06-28T11:56:37.574Z,2.05
2018-06-28T11:59:09.375Z,2.30
2018-06-28T12:01:41.981Z,1.67
2018-06-28T12:04:14.482Z,2.20
2018-06-28T12:06:46.852Z,2.17
2018-06-28T12:09:18.982Z,1.98
2018-06-28T12:11:51.458Z,2.10
2018-06-28T12:14:23.509Z,1.92
2018-06-28T12:17:02.755Z,1.95
2018-06-28T12:19:35.266Z,1.90
2018-06-28T12:22:07.861Z,2.20
2018-06-28T12:24:40.138Z,1.98
2018-06-28T12:27:12.575Z,1.98
2018-06-28T12:29:44.785Z,2.80
2018-06-28T12:32:16.918Z,1.80
2018-06-28T12:34:49.072Z,2.17
2018-06-28T12:37:20.826Z,1.72
2018-06-28T12:39:52.710Z,1.85
2018-06-28T12:42:24.878Z,1.60
2018-06-28T12:44:56.547Z,2.00
2018-06-28T12:48:00.898Z,1.87
2018-06-28T12:50:33.104Z,1.77
2018-06-28T12:53:07.937Z,1.40
2018-06-28T12:56:45.007Z,1.70
2018-06-28T12:59:19.402Z,1.70
2018-06-28T13:01:52.050Z,2.00
2018-06-28T13:04:23.906Z,1.77
2018-06-28T13:06:56.615Z,1.90
2018-06-28T13:09:28.904Z,1.90
2018-06-28T13:12:02.675Z,1.60
2018-06-28T13:14:35.048Z,1.72
2018-06-28T13:17:07.293Z,1.65
2018-06-28T13:19:39.637Z,1.90
2018-06-28T13:22:12.076Z,1.60
2018-06-28T13:24:44.547Z,2.25
2018-06-28T13:27:17.361Z,1.70
2018-06-28T13:29:49.535Z,1.85
2018-06-28T13:32:21.709Z,2.08
2018-06-28T13:34:53.800Z,1.67
2018-06-28T13:37:25.634Z,1.33
2018-06-28T13:39:57.445Z,2.30
2018-06-28T13:42:29.300Z,1.80
2018-06-28T13:45:01.472Z,1.60
2018-06-28T13:47:33.429Z,1.37
2018-06-28T13:50:06.540Z,1.80
2018-06-28T13:52:38.417Z,1.80
2018-06-28T13:55:11.998Z,1.52
2018-06-28T13:57:44.204Z,2.42
2018-06-28T14:00:16.050Z,1.50
2018-06-28T14:02:48.148Z,1.52
2018-06-28T14:05:20.186Z,1.65
2018-06-28T14:07:52.499Z,1.60
2018-06-28T14:10:24.819Z,1.75
2018-06-28T14:12:57.413Z,1.70
2018-06-28T14:15:29.346Z,1.40
2018-06-28T14:18:03.126Z,1.65
2018-06-28T14:20:35.047Z,1.40
2018-06-28T14:23:07.596Z,2.12
2018-06-28T14:25:39.905Z,1.52
2018-06-28T14:28:12.201Z,1.80
2018-06-28T14:30:44.763Z,1.37
2018-06-28T14:33:17.715Z,1.45
2018-06-28T14:35:49.888Z,1.40
2018-06-28T14:38:22.212Z,1.00
2018-06-28T14:40:54.471Z,1.15
2018-06-28T14:43:26.517Z,1.17
2018-06-28T14:45:58.943Z,1.55
2018-06-28T14:48:31.401Z,1.47
2018-06-28T14:51:03.422Z,1.32
2018-06-28T14:53:35.634Z,1.40
2018-06-28T14:56:07.952Z,1.50
2018-06-28T14:58:40.429Z,1.40
2018-06-28T15:01:12.744Z,2.22
2018-06-28T15:03:44.970Z,1.55
2018-06-28T15:06:17.403Z,1.37
2018-06-28T15:08:49.746Z,1.92
2018-06-28T15:11:22.242Z,1.70
2018-06-28T15:13:54.829Z,1.60
2018-06-28T15:16:27.501Z,1.60
2018-06-28T15:18:59.606Z,1.40
2018-06-28T15:21:31.737Z,1.30
2018-06-28T15:24:04.649Z,1.30
2018-06-28T15:26:36.821Z,1.20
2018-06-28T15:29:08.971Z,1.12
2018-06-28T15:31:41.345Z,1.27
2018-06-28T15:34:13.646Z,1.25
2018-06-28T15:36:46.322Z,1.42
2018-06-28T15:39:18.609Z,1.57
2018-06-28T15:41:50.766Z,1.40
2018-06-28T15:44:22.822Z,1.35
2018-06-28T15:46:55.499Z,1.40
2018-06-28T15:49:27.599Z,1.50
2018-06-28T15:51:59.980Z,1.52
2018-06-28T15:54:32.797Z,1.80
2018-06-28T15:57:05.369Z,1.60
2018-06-28T15:59:37.757Z,1.50
2018-06-28T16:02:10.434Z,1.50
2018-06-28T16:04:42.577Z,1.32
2018-06-28T16:07:14.792Z,1.50
2018-06-28T16:09:47.317Z,1.30
2018-06-28T16:12:19.573Z,1.47
2018-06-28T16:14:51.677Z,1.22
2018-06-28T16:17:23.789Z,1.25
2018-06-28T16:19:55.967Z,1.20
2018-06-28T16:22:28.255Z,2.02
2018-06-28T16:25:00.978Z,1.50
2018-06-28T16:27:33.172Z,1.62
2018-06-28T16:30:06.648Z,1.40
2018-06-28T16:32:38.917Z,1.20
2018-06-28T16:35:11.030Z,1.42
2018-06-28T16:37:43.106Z,1.40
2018-06-28T16:40:15.231Z,1.42
2018-06-28T16:42:47.286Z,0.95
2018-06-28T16:45:19.411Z,1.25
2018-06-28T16:47:52.251Z,1.30
2018-06-28T16:50:24.538Z,1.60
2018-06-28T16:52:56.669Z,1.30
2018-06-28T16:55:29.606Z,1.20
2018-06-28T16:58:01.774Z,1.37
2018-06-28T17:00:33.662Z,1.07
2018-06-28T17:03:05.639Z,1.40
2018-06-28T17:05:37.679Z,1.30
2018-06-28T17:08:09.849Z,1.30
2018-06-28T17:10:42.818Z,1.45
2018-06-28T17:13:15.071Z,1.30
2018-06-28T17:15:47.401Z,1.30
2018-06-28T17:18:19.639Z,1.25
2018-06-28T17:20:51.830Z,1.40
2018-06-28T17:23:24.121Z,1.42
2018-06-28T17:25:56.434Z,1.62
2018-06-28T17:28:28.572Z,1.25
2018-06-28T17:31:01.188Z,1.32
2018-06-28T17:33:33.212Z,1.42
2018-06-28T17:36:05.258Z,1.50
2018-06-28T17:38:37.516Z,1.55
2018-06-28T17:41:09.967Z,1.42
2018-06-28T17:43:41.995Z,1.25
2018-06-28T17:46:14.672Z,1.30
2018-06-28T17:48:47.133Z,1.10
2018-06-28T17:51:18.777Z,1.30
2018-06-28T17:53:50.602Z,1.70
2018-06-28T17:56:23.155Z,1.50
2018-06-28T17:58:55.150Z,1.43
2018-06-28T18:01:27.535Z,1.80
2018-06-28T18:03:59.692Z,1.70
2018-06-28T18:06:31.252Z,1.20
2018-06-28T18:09:05.043Z,1.50
2018-06-28T18:11:37.220Z,1.30
2018-06-28T18:14:09.405Z,1.30
2018-06-28T18:16:41.241Z,1.10
2018-06-28T18:19:12.880Z,1.30
2018-06-28T18:21:44.528Z,1.30
2018-06-28T18:24:16.227Z,1.57
2018-06-28T18:26:48.246Z,1.20
2018-06-28T18:29:19.737Z,1.43
2018-06-28T18:31:51.747Z,1.30
2018-06-28T18:34:23.655Z,1.60
2018-06-28T18:36:55.774Z,1.20
2018-06-28T18:39:28.753Z,1.17
2018-06-28T18:42:00.656Z,1.40
2018-06-28T18:44:31.826Z,1.30
2018-06-28T18:47:03.255Z,1.20
2018-06-28T18:49:35.795Z,1.20
2018-06-28T18:52:07.866Z,1.13
2018-06-28T18:54:39.591Z,1.20
2018-06-28T18:57:10.995Z,1.17
2018-06-28T18:59:42.423Z,1.20
2018-06-28T19:02:14.253Z,1.40
2018-06-28T19:04:46.085Z,1.30
2018-06-28T19:07:18.242Z,0.93
2018-06-28T19:09:55.018Z,1.47
2018-06-28T19:12:26.581Z,1.20
2018-06-28T19:15:03.545Z,1.20
2018-06-28T19:17:35.163Z,1.30
2018-06-28T19:20:07.233Z,1.30
2018-06-28T19:22:44.264Z,1.30
2018-06-28T19:25:16.151Z,1.40
2018-06-28T19:27:48.308Z,1.30
2018-06-28T19:30:24.956Z,1.33
2018-06-28T19:32:57.454Z,1.10
2018-06-28T19:35:30.221Z,1.37
2018-06-28T19:38:01.849Z,1.10
2018-06-28T19:40:38.875Z,1.30
2018-06-28T19:43:10.906Z,1.30
2018-06-28T19:45:42.893Z,1.20
2018-06-28T19:48:14.710Z,1.23
2018-06-28T19:51:51.568Z,1.50
2018-06-28T19:54:23.401Z,1.60
2018-06-28T19:56:55.217Z,1.97
2018-06-28T19:59:26.918Z,2.00
2018-06-28T20:02:03.805Z,1.80
2018-06-28T20:04:40.556Z,1.73
2018-06-28T20:07:12.190Z,1.80
2018-06-28T20:09:44.401Z,1.90
2018-06-28T20:12:21.979Z,1.40
2018-06-28T20:14:58.770Z,1.43
2018-06-28T20:17:36.576Z,1.47
2018-06-28T20:20:14.017Z,1.50
2018-06-28T20:22:45.868Z,1.67
2018-06-28T20:25:17.445Z,1.53
2018-06-28T20:27:54.396Z,1.50
2018-06-28T20:30:31.175Z,1.60
2018-06-28T20:33:07.882Z,1.70
2018-06-28T20:35:39.625Z,1.60
2018-06-28T20:38:12.390Z,2.40
2018-06-28T20:40:44.186Z,2.53
2018-06-28T20:43:16.011Z,2.70
2018-06-28T20:45:48.263Z,2.77
2018-06-28T20:48:20.134Z,2.50
2018-06-28T20:50:51.846Z,2.73
2018-06-28T20:53:23.646Z,2.90
2018-06-28T20:55:55.738Z,2.70
2018-06-28T20:58:27.270Z,2.93
2018-06-28T21:00:59.507Z,2.70
2018-06-28T21:03:31.047Z,3.40
2018-06-28T21:06:02.895Z,2.97
2018-06-28T21:08:34.388Z,2.80
2018-06-28T21:11:06.281Z,2.83
2018-06-28T21:13:38.242Z,2.97
2018-06-28T21:16:10.622Z,3.17
2018-06-28T21:18:42.514Z,3.00
2018-06-28T21:21:14.295Z,3.03
2018-06-28T21:23:45.996Z,2.50
2018-06-28T21:26:17.533Z,2.20
2018-06-28T21:28:49.205Z,2.00
2018-06-28T21:31:21.277Z,1.37
2018-06-28T21:33:52.776Z,1.57
2018-06-28T21:36:24.333Z,1.40
2018-06-28T21:38:56.034Z,1.50
2018-06-28T21:41:27.290Z,1.37
2018-06-28T21:43:58.582Z,1.90
2018-06-28T21:46:30.377Z,1.27
2018-06-28T21:49:02.050Z,1.77
2018-06-28T21:51:33.700Z,1.90
2018-06-28T21:54:05.772Z,1.90
2018-06-28T21:56:37.462Z,1.60
2018-06-28T21:59:09.029Z,2.10
2018-06-28T22:01:52.198Z,1.77
2018-06-28T22:04:24.322Z,1.63
2018-06-28T22:06:56.427Z,1.63
2018-06-28T22:09:28.208Z,1.67
2018-06-28T22:12:00.225Z,1.50
2018-06-28T22:14:32.088Z,1.60
2018-06-28T22:17:04.259Z,1.60
2018-06-28T22:19:35.565Z,1.90
2018-06-28T22:22:06.853Z,1.60
2018-06-28T22:24:38.470Z,1.40
2018-06-28T22:27:10.558Z,1.67
2018-06-28T22:29:48.757Z,1.50
2018-06-28T22:32:20.631Z,1.40
2018-06-28T22:34:52.006Z,1.30
2018-06-28T22:37:22.984Z,1.40
2018-06-28T22:39:54.374Z,1.20
2018-06-28T22:42:26.375Z,1.30
2018-06-28T22:44:59.341Z,1.33
2018-06-28T22:47:30.885Z,1.10
2018-06-28T22:50:03.259Z,1.10
2018-06-28T22:52:35.179Z,1.27
2018-06-28T22:55:06.717Z,1.20
2018-06-28T22:57:38.476Z,0.90
2018-06-28T23:00:11.649Z,1.13
2018-06-28T23:02:43.259Z,1.40
2018-06-28T23:05:15.023Z,1.00
2018-06-28T23:07:46.742Z,1.07
2018-06-28T23:10:18.566Z,1.00
2018-06-28T23:12:49.754Z,1.33
2018-06-28T23:15:21.561Z,1.10
2018-06-28T23:17:53.297Z,0.93
2018-06-28T23:20:25.059Z,1.13
2018-06-28T23:22:56.548Z,1.20
2018-06-28T23:25:27.929Z,1.03
2018-06-28T23:27:59.773Z,1.00
2018-06-28T23:30:31.509Z,1.17
2018-06-28T23:33:03.146Z,1.03
2018-06-28T23:35:35.182Z,1.40
2018-06-28T23:38:06.839Z,1.30
2018-06-28T23:40:38.442Z,1.00
2018-06-28T23:43:10.359Z,0.90
2018-06-28T23:45:42.386Z,1.10
2018-06-28T23:48:14.015Z,1.20
2018-06-28T23:50:45.557Z,1.10
2018-06-28T23:53:17.118Z,1.20
2018-06-28T23:55:48.775Z,1.10
2018-06-28T23:58:20.312Z,1.17
